Time;durP1;ratioP1;P1;durP2;ratioP2;P2;SDS_P1;SDS_P2;PMS_P1;PMS_P2;Temp;Humidity;BMP_temperature;BMP_pressure;BME280_temperature;BME280_humidity;BME280_pressure;Samples;Min_cycle;Max_cycle;Signal;HPM_P1;HPM_P2
2022/04/12 00:01:53;;;;;;;13.90;9.00;;;6.50;99.90;;;;;;5012214;28;21039;-71
2022/04/12 00:04:19;;;;;;;14.70;8.43;;;6.40;99.90;;;;;;5022468;28;20470;-71
2022/04/12 00:06:46;;;;;;;13.07;8.87;;;6.40;99.90;;;;;;5019227;28;20451;-71
2022/04/12 00:09:13;;;;;;;11.70;8.43;;;6.40;99.90;;;;;;5015293;28;20519;-71
2022/04/12 00:11:42;;;;;;;13.30;9.17;;;6.40;99.90;;;;;;5017695;28;20454;-70
2022/04/12 00:14:08;;;;;;;11.10;8.77;;;6.30;99.90;;;;;;5019381;28;20453;-72
2022/04/12 00:16:35;;;;;;;13.60;9.23;;;6.30;99.90;;;;;;5016757;28;20482;-71
2022/04/12 00:19:02;;;;;;;14.90;9.53;;;6.30;99.90;;;;;;5018737;28;20532;-71
2022/04/12 00:21:29;;;;;;;15.00;9.43;;;6.20;99.90;;;;;;5020164;28;20534;-71
2022/04/12 00:23:56;;;;;;;11.10;8.67;;;6.20;99.90;;;;;;5024937;28;20499;-71
2022/04/12 00:26:23;;;;;;;20.53;9.33;;;6.20;99.90;;;;;;5014851;28;20452;-71
2022/04/12 00:28:49;;;;;;;14.47;9.23;;;6.20;99.90;;;;;;5012657;28;20552;-72
2022/04/12 00:31:16;;;;;;;13.20;9.90;;;6.20;99.90;;;;;;5021213;28;21016;-71
2022/04/12 00:33:43;;;;;;;11.00;9.07;;;6.10;99.90;;;;;;5023402;28;20449;-71
2022/04/12 00:36:11;;;;;;;12.00;9.17;;;6.10;99.90;;;;;;5023642;28;20477;-70
2022/04/12 00:38:38;;;;;;;11.20;8.07;;;6.10;99.90;;;;;;5026022;28;20466;-70
2022/04/12 00:41:08;;;;;;;14.57;9.67;;;6.10;99.90;;;;;;5023767;28;20533;-70
2022/04/12 00:43:36;;;;;;;16.07;9.70;;;6.00;99.90;;;;;;5025588;28;20949;-70
2022/04/12 00:46:03;;;;;;;14.17;9.40;;;6.00;99.90;;;;;;5017456;28;20442;-70
2022/04/12 00:48:31;;;;;;;12.13;8.70;;;6.00;99.90;;;;;;5017862;28;20876;-70
2022/04/12 00:50:58;;;;;;;11.73;8.30;;;5.90;99.90;;;;;;5017746;28;20450;-70
2022/04/12 00:53:27;;;;;;;10.73;9.03;;;5.90;99.90;;;;;;5021038;28;20464;-70
2022/04/12 00:55:54;;;;;;;12.60;9.40;;;5.90;99.90;;;;;;5022914;28;20486;-70
2022/04/12 00:58:21;;;;;;;16.17;9.70;;;5.90;99.90;;;;;;5027827;28;20516;-70
2022/04/12 01:00:49;;;;;;;14.57;9.97;;;5.80;99.90;;;;;;5022286;28;20450;-70
2022/04/12 01:03:16;;;;;;;19.73;10.40;;;5.80;99.90;;;;;;5015972;28;20936;-70
2022/04/12 01:05:43;;;;;;;14.37;9.67;;;5.80;99.90;;;;;;5024117;28;20444;-70
2022/04/12 01:08:10;;;;;;;13.10;9.83;;;5.80;99.90;;;;;;5018371;28;20453;-70
2022/04/12 01:10:38;;;;;;;14.10;9.40;;;5.80;99.90;;;;;;5021189;28;20520;-70
2022/04/12 01:13:05;;;;;;;13.33;9.73;;;5.70;99.90;;;;;;5017174;28;20551;-70
2022/04/12 01:15:31;;;;;;;12.87;9.83;;;5.70;99.90;;;;;;5017843;28;20493;-70
2022/04/12 01:17:58;;;;;;;14.83;9.67;;;5.60;99.90;;;;;;5019914;28;20496;-70
2022/04/12 01:20:29;;;;;;;15.67;9.97;;;5.70;99.90;;;;;;5020652;28;20462;-70
2022/04/12 01:22:59;;;;;;;17.07;11.00;;;5.60;99.90;;;;;;5027317;28;20454;-70
2022/04/12 01:25:27;;;;;;;12.83;10.40;;;5.60;99.90;;;;;;5023186;28;20445;-70
2022/04/12 01:27:54;;;;;;;21.87;11.97;;;5.60;99.90;;;;;;5023316;28;20503;-70
2022/04/12 01:30:20;;;;;;;18.90;11.90;;;5.60;99.90;;;;;;5017284;28;20474;-70
2022/04/12 01:32:47;;;;;;;27.87;15.57;;;5.50;99.90;;;;;;5018287;28;20458;-71
2022/04/12 01:35:14;;;;;;;32.63;16.50;;;5.50;99.90;;;;;;5021980;28;20501;-71
2022/04/12 01:37:41;;;;;;;29.80;15.90;;;5.50;99.90;;;;;;5020286;28;20548;-71
2022/04/12 01:40:09;;;;;;;30.47;15.10;;;5.50;99.90;;;;;;5022434;28;20468;-70
2022/04/12 01:42:37;;;;;;;25.60;14.33;;;5.50;99.90;;;;;;5024637;28;20455;-71
2022/04/12 01:45:05;;;;;;;26.17;14.93;;;5.50;99.90;;;;;;5017157;28;20542;-71
2022/04/12 01:47:31;;;;;;;22.93;13.83;;;5.40;99.90;;;;;;5025717;28;20449;-71
2022/04/12 01:49:58;;;;;;;27.60;14.37;;;5.40;99.90;;;;;;5022972;28;20485;-71
2022/04/12 01:52:25;;;;;;;26.80;14.27;;;5.40;99.90;;;;;;5018835;28;20452;-71
2022/04/12 01:54:51;;;;;;;25.90;13.20;;;5.40;99.90;;;;;;5022721;28;20484;-71
2022/04/12 01:57:18;;;;;;;21.77;13.80;;;5.30;99.90;;;;;;5023933;28;20546;-71
2022/04/12 01:59:46;;;;;;;30.67;14.20;;;5.30;99.90;;;;;;5018438;28;20543;-71
2022/04/12 02:02:13;;;;;;;16.90;11.83;;;5.30;99.90;;;;;;5023763;28;20962;-71
2022/04/12 02:04:39;;;;;;;20.07;11.80;;;5.20;99.90;;;;;;5019118;28;20966;-71
2022/04/12 02:07:06;;;;;;;18.40;11.40;;;5.20;99.90;;;;;;5023295;28;20455;-70
2022/04/12 02:09:33;;;;;;;21.10;12.57;;;5.20;99.90;;;;;;5017394;28;21020;-71
2022/04/12 02:12:00;;;;;;;18.40;12.20;;;5.20;99.90;;;;;;5024147;28;20491;-70
2022/04/12 02:14:26;;;;;;;20.33;11.80;;;5.20;99.90;;;;;;5023998;28;20450;-71
2022/04/12 02:16:54;;;;;;;20.30;11.00;;;5.10;99.90;;;;;;5020985;28;20532;-70
2022/04/12 02:19:21;;;;;;;15.33;9.37;;;5.10;99.90;;;;;;5025775;28;20985;-71
2022/04/12 02:21:48;;;;;;;14.00;9.93;;;5.10;99.90;;;;;;5025862;28;20505;-71
2022/04/12 02:24:14;;;;;;;13.50;9.47;;;5.10;99.90;;;;;;5018083;28;20489;-71
2022/04/12 02:26:41;;;;;;;14.40;8.97;;;5.00;99.90;;;;;;5022732;28;20454;-70
2022/04/12 02:29:08;;;;;;;12.00;8.97;;;5.00;99.90;;;;;;5019940;28;21060;-70
2022/04/12 02:31:34;;;;;;;14.30;9.37;;;5.00;99.90;;;;;;5016381;28;20504;-70
2022/04/12 02:34:03;;;;;;;18.40;9.70;;;5.00;99.90;;;;;;5020400;28;20454;-70
2022/04/12 02:36:29;;;;;;;17.93;11.33;;;5.00;99.90;;;;;;5027012;28;20481;-71
2022/04/12 02:38:56;;;;;;;13.80;9.67;;;4.90;99.90;;;;;;5016776;28;20545;-71
2022/04/12 02:41:23;;;;;;;12.37;9.10;;;4.90;99.90;;;;;;5013353;28;20951;-71
2022/04/12 02:43:49;;;;;;;15.00;10.40;;;4.90;99.90;;;;;;5017438;28;21028;-71
2022/04/12 02:46:16;;;;;;;17.50;10.47;;;4.90;99.90;;;;;;5019320;28;20461;-71
2022/04/12 02:48:43;;;;;;;22.90;11.73;;;4.90;99.90;;;;;;5026202;28;20465;-71
2022/04/12 02:51:11;;;;;;;23.10;13.20;;;4.90;99.90;;;;;;5016107;28;22178;-70
2022/04/12 02:53:38;;;;;;;23.37;11.17;;;4.80;99.90;;;;;;5019090;28;20513;-71
2022/04/12 02:56:05;;;;;;;27.83;11.57;;;4.80;99.90;;;;;;5024938;28;20868;-71
2022/04/12 02:58:31;;;;;;;23.50;12.10;;;4.70;99.90;;;;;;5022249;28;20465;-70
2022/04/12 03:00:58;;;;;;;21.37;11.50;;;4.70;99.90;;;;;;5017077;28;20796;-70
2022/04/12 03:03:25;;;;;;;14.53;10.13;;;4.70;99.90;;;;;;5020372;28;20523;-71
2022/04/12 03:05:51;;;;;;;19.17;10.70;;;4.70;99.90;;;;;;5025358;28;20830;-71
2022/04/12 03:08:19;;;;;;;16.63;10.70;;;4.70;99.90;;;;;;5023003;28;20453;-70
2022/04/12 03:10:46;;;;;;;13.00;9.93;;;4.70;99.90;;;;;;5021824;28;20453;-71
2022/04/12 03:13:13;;;;;;;14.07;9.67;;;4.70;99.90;;;;;;5020880;28;20511;-71
2022/04/12 03:15:39;;;;;;;14.10;10.27;;;4.70;99.90;;;;;;5019796;28;20450;-71
2022/04/12 03:18:06;;;;;;;19.33;10.53;;;4.60;99.90;;;;;;5018845;28;21017;-71
2022/04/12 03:20:33;;;;;;;15.97;10.57;;;4.70;99.90;;;;;;5013939;28;20501;-71
2022/04/12 03:22:59;;;;;;;15.90;9.87;;;4.60;99.90;;;;;;5016636;28;20500;-71
2022/04/12 03:25:28;;;;;;;14.37;9.47;;;4.70;99.90;;;;;;5018803;28;20454;-70
2022/04/12 03:27:55;;;;;;;16.53;10.80;;;4.70;99.90;;;;;;5023359;28;20449;-71
2022/04/12 03:30:21;;;;;;;17.57;10.20;;;4.70;99.90;;;;;;5021160;28;20468;-71
2022/04/12 03:32:48;;;;;;;14.70;9.87;;;4.70;99.90;;;;;;5016338;28;20454;-70
2022/04/12 03:35:15;;;;;;;17.47;10.23;;;4.70;99.90;;;;;;5019485;28;20445;-71
2022/04/12 03:37:42;;;;;;;14.17;11.07;;;4.70;99.90;;;;;;5015115;28;20474;-70
2022/04/12 03:40:10;;;;;;;17.80;9.83;;;4.60;99.90;;;;;;5016435;28;20478;-70
2022/04/12 03:42:38;;;;;;;19.60;10.67;;;4.60;99.90;;;;;;5022741;28;20570;-70
2022/04/12 03:45:06;;;;;;;15.47;10.50;;;4.60;99.90;;;;;;5016626;28;21009;-70
2022/04/12 03:47:33;;;;;;;14.83;9.43;;;4.60;99.90;;;;;;5021352;28;21003;-71
2022/04/12 03:50:00;;;;;;;14.77;9.83;;;4.60;99.90;;;;;;5026074;28;20689;-70
2022/04/12 03:52:26;;;;;;;16.10;10.27;;;4.60;99.90;;;;;;5025945;28;20591;-70
2022/04/12 03:54:53;;;;;;;20.53;10.37;;;4.60;99.90;;;;;;5026877;28;20453;-70
2022/04/12 03:57:19;;;;;;;21.40;9.97;;;4.60;99.90;;;;;;5020786;28;21314;-71
2022/04/12 03:59:47;;;;;;;17.87;10.80;;;4.50;99.90;;;;;;5021515;28;20473;-71
2022/04/12 04:02:14;;;;;;;15.43;9.60;;;4.60;99.90;;;;;;5015712;28;20511;-71
2022/04/12 04:04:41;;;;;;;14.40;9.27;;;4.50;99.90;;;;;;5013673;28;20537;-70
2022/04/12 04:07:07;;;;;;;14.40;9.77;;;4.50;99.90;;;;;;5021466;28;20454;-70
2022/04/12 04:09:34;;;;;;;16.67;10.00;;;4.50;99.90;;;;;;5017977;28;21064;-70
2022/04/12 04:12:03;;;;;;;13.03;9.37;;;4.50;99.90;;;;;;5020032;28;20449;-70
2022/04/12 04:14:31;;;;;;;18.63;10.90;;;4.50;99.90;;;;;;5020050;28;20453;-70
2022/04/12 04:17:00;;;;;;;16.13;10.60;;;4.40;99.90;;;;;;5024030;28;20487;-70
2022/04/12 04:19:27;;;;;;;22.00;10.97;;;4.40;99.90;;;;;;5022766;28;20482;-71
2022/04/12 04:21:55;;;;;;;16.10;9.80;;;4.40;99.90;;;;;;5024363;28;20503;-70
2022/04/12 04:24:22;;;;;;;31.63;10.37;;;4.40;99.90;;;;;;5026183;28;20454;-70
2022/04/12 04:26:54;;;;;;;17.93;10.57;;;4.30;99.90;;;;;;5023178;28;20453;-70
2022/04/12 04:29:22;;;;;;;17.70;10.33;;;4.30;99.90;;;;;;5021820;28;20484;-70
2022/04/12 04:31:49;;;;;;;21.73;10.43;;;4.30;99.90;;;;;;5027737;28;20449;-70
2022/04/12 04:34:17;;;;;;;13.77;9.87;;;4.30;99.90;;;;;;5021973;28;21026;-71
2022/04/12 04:36:44;;;;;;;15.57;10.20;;;4.30;99.90;;;;;;5027256;28;20538;-70
2022/04/12 04:39:10;;;;;;;16.50;10.40;;;4.30;99.90;;;;;;5021975;28;20477;-70
2022/04/12 04:41:37;;;;;;;25.93;11.37;;;4.30;99.90;;;;;;5024190;28;20487;-70
2022/04/12 04:44:04;;;;;;;20.97;10.30;;;4.30;99.90;;;;;;5029034;28;20454;-71
2022/04/12 04:46:30;;;;;;;21.40;11.90;;;4.30;99.90;;;;;;5017806;28;21036;-70
2022/04/12 04:48:57;;;;;;;29.80;12.20;;;4.30;99.90;;;;;;5017319;28;20527;-71
2022/04/12 04:51:25;;;;;;;20.10;10.60;;;4.30;99.90;;;;;;5023958;28;20888;-71
2022/04/12 04:53:58;;;;;;;17.00;9.90;;;4.30;99.90;;;;;;5027935;28;20464;-71
2022/04/12 04:56:25;;;;;;;22.00;10.60;;;4.40;99.90;;;;;;5022103;28;20461;-71
2022/04/12 04:58:53;;;;;;;15.97;10.17;;;4.40;99.90;;;;;;5023795;28;20473;-71
2022/04/12 05:01:20;;;;;;;16.87;10.10;;;4.50;99.90;;;;;;5019769;28;20449;-71
2022/04/12 05:03:47;;;;;;;22.13;10.97;;;4.50;99.90;;;;;;5017938;28;20832;-71
2022/04/12 05:06:13;;;;;;;21.30;10.50;;;4.60;99.90;;;;;;5027388;28;20939;-71
2022/04/12 05:08:41;;;;;;;23.20;10.20;;;4.60;99.90;;;;;;5025587;28;20466;-71
2022/04/12 05:11:08;;;;;;;16.83;10.73;;;4.60;99.90;;;;;;5026126;28;20462;-71
2022/04/12 05:13:35;;;;;;;18.07;10.40;;;4.60;99.90;;;;;;5019146;28;20873;-71
2022/04/12 05:16:01;;;;;;;20.93;10.67;;;4.60;99.90;;;;;;5022759;28;20951;-72
2022/04/12 05:18:28;;;;;;;19.17;9.83;;;4.60;99.90;;;;;;5030278;28;20531;-72
2022/04/12 05:20:55;;;;;;;18.07;9.60;;;4.60;99.90;;;;;;5027346;28;20457;-72
2022/04/12 05:23:21;;;;;;;17.53;9.30;;;4.70;99.90;;;;;;5018047;28;20512;-72
2022/04/12 05:25:53;;;;;;;16.47;9.57;;;4.70;99.90;;;;;;5022998;28;20456;-72
2022/04/12 05:28:20;;;;;;;15.50;9.00;;;4.70;99.90;;;;;;5020618;28;20532;-72
2022/04/12 05:30:47;;;;;;;12.00;8.67;;;4.80;99.90;;;;;;5017685;28;20450;-72
2022/04/12 05:33:14;;;;;;;20.50;9.20;;;4.80;99.90;;;;;;5021733;28;20954;-72
2022/04/12 05:35:41;;;;;;;19.73;9.27;;;4.80;99.90;;;;;;5024317;28;20464;-72
2022/04/12 05:38:08;;;;;;;21.20;9.63;;;4.80;99.90;;;;;;5016271;28;20485;-72
2022/04/12 05:40:35;;;;;;;18.23;7.83;;;4.90;99.90;;;;;;5029268;28;20453;-72
2022/04/12 05:43:04;;;;;;;15.97;9.63;;;5.00;99.90;;;;;;5022342;28;20950;-72
2022/04/12 05:45:30;;;;;;;22.57;9.40;;;5.00;99.90;;;;;;5017751;28;20449;-72
2022/04/12 05:47:57;;;;;;;17.90;8.57;;;5.10;99.90;;;;;;5017477;28;20847;-72
2022/04/12 05:50:25;;;;;;;17.43;9.23;;;5.20;99.90;;;;;;5022792;28;20934;-72
2022/04/12 05:52:53;;;;;;;16.40;9.30;;;5.20;99.90;;;;;;5021989;28;20454;-72
2022/04/12 05:55:21;;;;;;;14.87;8.47;;;5.40;99.90;;;;;;5027559;28;20509;-71
2022/04/12 05:57:52;;;;;;;10.70;7.83;;;5.60;99.90;;;;;;5022718;28;21006;-72
2022/04/12 06:00:21;;;;;;;9.63;7.53;;;5.80;99.90;;;;;;5021433;28;20814;-71
2022/04/12 06:02:48;;;;;;;16.90;6.87;;;6.00;99.90;;;;;;5023611;28;20599;-71
2022/04/12 06:05:15;;;;;;;9.10;6.70;;;6.30;99.90;;;;;;5021782;28;20982;-71
2022/04/12 06:07:42;;;;;;;12.03;6.50;;;6.90;99.90;;;;;;5018691;28;20449;-71
2022/04/12 06:10:10;;;;;;;9.43;7.30;;;7.50;99.90;;;;;;5018027;28;20478;-71
2022/04/12 06:12:37;;;;;;;9.20;7.07;;;7.90;99.90;;;;;;5014975;28;20450;-71
2022/04/12 06:15:04;;;;;;;14.47;6.90;;;7.90;99.90;;;;;;5019956;28;20504;-71
2022/04/12 06:17:33;;;;;;;17.97;8.17;;;8.10;99.90;;;;;;5013616;28;20490;-71
2022/04/12 06:20:02;;;;;;;14.00;8.20;;;8.30;99.90;;;;;;5013180;28;20517;-71
2022/04/12 06:22:29;;;;;;;11.30;7.80;;;8.40;99.90;;;;;;5017738;28;20478;-71
2022/04/12 06:24:55;;;;;;;11.77;8.00;;;8.50;99.90;;;;;;5014507;28;20508;-71
2022/04/12 06:27:30;;;;;;;14.00;8.43;;;8.60;99.90;;;;;;5016279;28;20441;-71
2022/04/12 06:29:57;;;;;;;17.60;8.90;;;8.80;99.90;;;;;;5022789;28;20477;-72
2022/04/12 06:32:25;;;;;;;14.50;7.27;;;8.90;99.90;;;;;;5020500;28;20478;-71
2022/04/12 06:34:53;;;;;;;15.20;8.60;;;8.90;99.90;;;;;;5027583;28;20448;-71
2022/04/12 06:37:23;;;;;;;18.37;9.60;;;8.80;99.90;;;;;;5015457;28;20493;-71
2022/04/12 06:39:50;;;;;;;20.43;9.80;;;8.70;99.90;;;;;;5017137;28;20512;-71
2022/04/12 06:42:17;;;;;;;19.77;9.77;;;8.60;99.90;;;;;;5025589;28;20810;-71
2022/04/12 06:44:44;;;;;;;12.53;8.20;;;8.50;99.90;;;;;;5025482;28;21000;-71
2022/04/12 06:47:10;;;;;;;16.23;8.97;;;8.40;99.90;;;;;;5021406;28;20450;-71
2022/04/12 06:49:37;;;;;;;19.33;8.93;;;8.40;99.90;;;;;;5009785;28;20482;-71
2022/04/12 06:52:06;;;;;;;21.93;9.20;;;8.70;99.90;;;;;;5014128;28;20823;-71
2022/04/12 06:54:32;;;;;;;23.00;10.87;;;9.10;99.90;;;;;;5027954;28;20454;-71
2022/04/12 06:57:00;;;;;;;20.23;8.43;;;9.60;99.90;;;;;;5025969;28;20468;-71
2022/04/12 06:59:26;;;;;;;14.03;8.57;;;10.10;99.90;;;;;;5018513;28;20488;-71
2022/04/12 07:01:53;;;;;;;16.27;8.00;;;10.50;99.90;;;;;;5022635;28;20461;-70
2022/04/12 07:04:21;;;;;;;14.37;8.87;;;10.80;99.90;;;;;;5013883;28;20464;-70
2022/04/12 07:06:48;;;;;;;13.60;8.37;;;11.10;99.90;;;;;;5023135;28;20595;-70
2022/04/12 07:09:20;;;;;;;15.57;7.90;;;11.20;99.90;;;;;;5022691;28;20545;-71
2022/04/12 07:11:47;;;;;;;14.47;8.17;;;11.40;99.90;;;;;;5019454;28;20461;-72
2022/04/12 07:14:14;;;;;;;17.07;8.63;;;11.50;99.90;;;;;;5022233;28;20874;-72
2022/04/12 07:16:40;;;;;;;13.07;7.73;;;11.50;99.90;;;;;;5021461;28;20504;-71
2022/04/12 07:19:07;;;;;;;13.23;7.40;;;11.50;99.90;;;;;;5016383;28;21110;-71
2022/04/12 07:21:34;;;;;;;10.80;7.23;;;11.50;99.90;;;;;;5012790;28;20450;-71
2022/04/12 07:24:03;;;;;;;11.70;7.80;;;11.70;99.90;;;;;;5015147;28;20449;-71
2022/04/12 07:26:31;;;;;;;13.03;8.40;;;11.80;99.90;;;;;;5018044;28;20508;-71
2022/04/12 07:28:58;;;;;;;12.77;7.57;;;11.90;99.90;;;;;;5020781;28;20466;-71
2022/04/12 07:31:25;;;;;;;9.30;6.77;;;11.80;99.90;;;;;;5019644;28;20511;-71
2022/04/12 07:33:52;;;;;;;11.37;7.60;;;11.80;99.90;;;;;;5018280;28;20457;-70
2022/04/12 07:36:19;;;;;;;12.67;7.90;;;11.80;99.90;;;;;;5013282;28;20455;-70
2022/04/12 07:38:48;;;;;;;10.57;7.60;;;11.70;99.90;;;;;;5010208;28;20494;-72
2022/04/12 07:41:15;;;;;;;13.33;7.57;;;11.70;99.90;;;;;;5011817;28;20450;-71
2022/04/12 07:43:45;;;;;;;11.13;7.37;;;11.60;99.90;;;;;;5024388;28;20453;-72
2022/04/12 07:46:13;;;;;;;15.50;8.07;;;11.60;99.90;;;;;;5020087;28;20489;-71
2022/04/12 07:48:39;;;;;;;12.20;8.30;;;11.70;99.90;;;;;;5020578;28;20478;-71
2022/04/12 07:51:06;;;;;;;11.83;8.27;;;11.80;99.90;;;;;;5011512;28;20446;-71
2022/04/12 07:53:33;;;;;;;11.67;8.57;;;11.70;99.90;;;;;;5010373;28;20450;-71
2022/04/12 07:56:00;;;;;;;11.90;8.47;;;11.60;99.90;;;;;;5020901;28;20532;-71
2022/04/12 07:58:26;;;;;;;13.13;8.57;;;11.80;99.90;;;;;;5021027;28;20494;-71
2022/04/12 08:00:55;;;;;;;13.27;9.20;;;12.00;99.90;;;;;;5017935;28;20477;-71
2022/04/12 08:03:22;;;;;;;10.47;7.73;;;12.20;99.90;;;;;;5015582;28;20856;-71
2022/04/12 08:05:49;;;;;;;10.80;7.73;;;12.30;99.90;;;;;;5022561;28;20459;-72
2022/04/12 08:08:15;;;;;;;13.60;8.30;;;12.40;99.90;;;;;;5023046;28;20457;-71
2022/04/12 08:10:42;;;;;;;10.97;7.23;;;12.50;99.90;;;;;;5021836;28;20461;-71
2022/04/12 08:13:09;;;;;;;11.10;7.17;;;12.60;99.90;;;;;;5017622;28;20540;-71
2022/04/12 08:15:37;;;;;;;10.73;7.33;;;12.50;99.90;;;;;;5021905;28;20454;-71
2022/04/12 08:18:05;;;;;;;13.80;9.00;;;12.60;99.90;;;;;;5016659;28;20477;-71
2022/04/12 08:20:32;;;;;;;14.27;7.30;;;12.80;99.90;;;;;;5014672;28;20450;-71
2022/04/12 08:22:59;;;;;;;11.97;7.50;;;12.90;99.90;;;;;;5015902;28;20454;-70
2022/04/12 08:25:26;;;;;;;11.53;8.10;;;13.00;99.90;;;;;;5016315;28;20461;-71
2022/04/12 08:27:53;;;;;;;17.97;7.60;;;13.10;99.90;;;;;;5021272;28;20447;-71
2022/04/12 08:30:20;;;;;;;11.03;7.87;;;13.00;99.90;;;;;;5015300;28;20478;-71
2022/04/12 08:32:46;;;;;;;13.90;7.80;;;13.20;99.90;;;;;;5013547;28;20454;-70
2022/04/12 08:35:15;;;;;;;15.17;7.67;;;13.10;99.90;;;;;;5019426;28;20458;-71
2022/04/12 08:37:43;;;;;;;14.13;7.60;;;13.20;99.90;;;;;;5019749;28;20524;-71
2022/04/12 08:40:11;;;;;;;12.43;7.70;;;13.30;99.90;;;;;;5025897;28;20477;-71
2022/04/12 08:42:38;;;;;;;13.80;8.00;;;13.20;99.90;;;;;;5018423;28;20888;-71
2022/04/12 08:45:06;;;;;;;12.63;7.17;;;13.40;99.90;;;;;;5010095;28;20425;-71
2022/04/12 08:47:35;;;;;;;10.13;7.73;;;13.50;99.90;;;;;;5016871;28;20450;-72
2022/04/12 08:50:03;;;;;;;12.10;8.50;;;13.60;99.90;;;;;;5014920;28;20568;-70
2022/04/12 08:52:32;;;;;;;11.33;7.80;;;13.50;99.90;;;;;;5019035;28;20450;-71
2022/04/12 08:55:01;;;;;;;13.07;7.40;;;13.50;99.90;;;;;;5014309;28;20453;-71
2022/04/12 08:57:28;;;;;;;13.73;8.03;;;13.50;99.90;;;;;;5025424;28;20458;-71
2022/04/12 08:59:56;;;;;;;13.20;7.70;;;13.50;99.90;;;;;;5023471;28;20958;-72
2022/04/12 09:02:23;;;;;;;12.47;7.50;;;13.60;99.90;;;;;;5022135;28;21431;-70
2022/04/12 09:04:50;;;;;;;13.40;7.30;;;13.70;99.90;;;;;;5024921;28;20447;-71
2022/04/12 09:07:17;;;;;;;14.17;7.93;;;13.80;99.90;;;;;;5022487;28;20458;-71
2022/04/12 09:09:45;;;;;;;12.40;7.97;;;13.90;99.90;;;;;;5020163;28;20472;-71
2022/04/12 09:12:14;;;;;;;12.73;7.60;;;14.10;99.90;;;;;;5021169;28;20468;-71
2022/04/12 09:14:42;;;;;;;10.83;7.57;;;14.30;99.90;;;;;;5017795;28;20529;-71
2022/04/12 09:17:11;;;;;;;10.33;7.20;;;14.50;99.90;;;;;;5018741;28;20486;-71
2022/04/12 09:19:42;;;;;;;12.17;7.73;;;14.60;99.90;;;;;;5021342;28;20500;-71
2022/04/12 09:22:16;;;;;;;14.40;8.13;;;14.70;99.90;;;;;;5023188;28;20837;-71
2022/04/12 09:24:49;;;;;;;11.00;7.63;;;14.70;99.90;;;;;;5018574;28;20459;-71
2022/04/12 09:27:17;;;;;;;12.63;7.87;;;15.10;99.90;;;;;;5019650;28;20535;-71
2022/04/12 09:29:47;;;;;;;17.67;7.60;;;15.40;99.90;;;;;;5020844;28;20465;-70
2022/04/12 09:32:15;;;;;;;13.23;8.70;;;15.60;99.90;;;;;;5016348;28;20425;-70
2022/04/12 09:34:43;;;;;;;9.90;7.43;;;15.70;99.90;;;;;;5020953;28;20442;-71
2022/04/12 09:37:20;;;;;;;13.20;9.17;;;15.60;99.90;;;;;;5025084;28;20516;-71
2022/04/12 09:39:54;;;;;;;14.90;8.50;;;15.70;99.90;;;;;;5029014;28;20904;-71
2022/04/12 09:42:43;;;;;;;19.47;7.83;;;15.70;99.90;;;;;;5015636;28;20454;-71
2022/04/12 09:45:11;;;;;;;11.73;7.63;;;15.50;99.90;;;;;;5021638;28;20428;-71
2022/04/12 09:47:39;;;;;;;13.93;8.70;;;15.90;99.90;;;;;;5024096;28;20471;-71
2022/04/12 09:50:07;;;;;;;12.63;8.00;;;16.00;99.90;;;;;;5020771;28;20460;-71
2022/04/12 09:52:34;;;;;;;15.17;8.23;;;16.00;99.90;;;;;;5023405;28;20450;-71
2022/04/12 09:55:03;;;;;;;9.70;7.23;;;16.20;99.90;;;;;;5023335;28;20462;-71
2022/04/12 09:57:31;;;;;;;14.60;8.20;;;16.50;99.90;;;;;;5022895;28;20445;-71
2022/04/12 09:59:58;;;;;;;13.10;7.47;;;16.60;99.90;;;;;;5028783;28;20898;-72
2022/04/12 10:02:27;;;;;;;15.13;7.23;;;16.60;99.90;;;;;;5023737;28;20497;-73
2022/04/12 10:04:55;;;;;;;14.00;8.03;;;16.60;99.90;;;;;;5025020;28;20515;-73
2022/04/12 10:07:23;;;;;;;12.07;7.60;;;16.70;99.90;;;;;;5016010;28;21028;-73
2022/04/12 10:09:51;;;;;;;14.23;7.90;;;17.00;99.90;;;;;;5020704;28;20466;-73
2022/04/12 10:12:21;;;;;;;11.63;7.90;;;17.10;99.90;;;;;;5017847;28;20432;-73
2022/04/12 10:14:48;;;;;;;10.50;6.97;;;17.20;99.90;;;;;;5013991;28;20912;-73
2022/04/12 10:17:15;;;;;;;12.43;7.23;;;17.30;99.90;;;;;;5021295;28;20433;-71
2022/04/12 10:19:43;;;;;;;17.57;7.60;;;17.30;99.90;;;;;;5022818;28;20539;-71
2022/04/12 10:22:10;;;;;;;11.43;7.60;;;17.30;99.90;;;;;;5024697;28;20432;-73
2022/04/12 10:24:38;;;;;;;14.20;8.67;;;17.30;99.90;;;;;;5020415;28;20940;-73
2022/04/12 10:27:06;;;;;;;12.40;8.10;;;17.40;99.90;;;;;;5029426;28;20994;-73
2022/04/12 10:29:35;;;;;;;10.80;7.40;;;17.50;99.90;;;;;;5015808;28;20478;-71
2022/04/12 10:32:03;;;;;;;14.00;8.57;;;17.50;99.90;;;;;;5018045;28;20512;-71
2022/04/12 10:34:30;;;;;;;14.47;7.60;;;17.40;99.90;;;;;;5013486;28;20524;-71
2022/04/12 10:37:04;;;;;;;10.00;8.00;;;17.50;99.90;;;;;;5022428;28;20471;-71
2022/04/12 10:39:33;;;;;;;12.53;8.33;;;17.60;99.90;;;;;;5027116;28;20456;-71
2022/04/12 10:42:03;;;;;;;12.17;8.50;;;17.80;99.90;;;;;;5016850;28;20461;-71
2022/04/12 10:44:38;;;;;;;14.70;9.07;;;18.10;99.90;;;;;;5020451;28;20426;-71
2022/04/12 10:47:05;;;;;;;13.50;8.27;;;18.40;99.90;;;;;;5014046;28;20436;-71
2022/04/12 10:49:37;;;;;;;15.10;7.43;;;18.70;99.90;;;;;;5014785;28;20818;-71
2022/04/12 10:52:09;;;;;;;12.23;7.60;;;18.90;99.90;;;;;;5023979;28;20515;-71
2022/04/12 10:54:36;;;;;;;13.17;8.00;;;18.90;99.90;;;;;;5020504;28;20443;-72
2022/04/12 10:57:22;;;;;;;11.73;7.20;;;18.90;99.90;;;;;;5019983;28;20432;-73
2022/04/12 10:59:53;;;;;;;11.17;6.90;;;19.30;99.90;;;;;;5027288;28;20467;-74
2022/04/12 11:02:20;;;;;;;11.67;7.27;;;19.20;99.90;;;;;;5018909;28;20446;-76
2022/04/12 11:04:47;;;;;;;10.97;6.73;;;19.00;99.90;;;;;;5015873;28;21000;-74
2022/04/12 11:07:28;;;;;;;11.53;6.67;;;19.10;99.90;;;;;;5016264;28;20788;-74
2022/04/12 11:10:23;;;;;;;17.03;6.60;;;19.30;99.90;;;;;;5021193;28;20559;-73
2022/04/12 11:13:03;;;;;;;10.30;7.20;;;19.60;99.90;;;;;;4985001;28;20450;-72
2022/04/12 11:15:32;;;;;;;13.00;7.10;;;20.10;99.90;;;;;;5024462;28;20969;-72
2022/04/12 11:18:10;;;;;;;12.97;6.63;;;20.10;99.90;;;;;;5020561;28;20549;-73
2022/04/12 11:20:39;;;;;;;7.30;5.30;;;20.30;99.90;;;;;;5023051;28;20616;-72
2022/04/12 11:23:09;;;;;;;9.17;5.27;;;20.30;99.90;;;;;;5018831;28;20461;-73
2022/04/12 11:25:37;;;;;;;6.57;5.37;;;20.40;99.90;;;;;;5019685;28;20450;-72
2022/04/12 11:28:04;;;;;;;7.83;4.90;;;20.50;99.50;;;;;;5023436;28;20477;-73
2022/04/12 11:30:32;;;;;;;5.50;4.40;;;20.50;99.40;;;;;;5018208;28;20455;-72
2022/04/12 11:32:59;;;;;;;4.93;4.23;;;20.80;99.50;;;;;;5016417;28;20877;-73
2022/04/12 11:35:26;;;;;;;5.33;4.57;;;20.80;97.60;;;;;;5022936;28;20453;-73
2022/04/12 11:37:54;;;;;;;4.90;3.60;;;20.80;98.30;;;;;;5013581;28;20454;-72
2022/04/12 11:40:20;;;;;;;4.80;4.03;;;21.10;98.10;;;;;;5015049;28;21002;-72
2022/04/12 11:42:47;;;;;;;3.63;3.23;;;21.40;97.80;;;;;;5021927;28;20468;-73
2022/04/12 11:45:14;;;;;;;6.73;3.80;;;21.70;97.70;;;;;;5018483;28;20488;-72
2022/04/12 11:47:44;;;;;;;5.70;4.13;;;21.70;96.40;;;;;;5019146;28;21236;-72
2022/04/12 11:50:18;;;;;;;3.80;3.13;;;21.70;95.20;;;;;;5023917;28;20536;-72
2022/04/12 11:52:45;;;;;;;4.30;3.90;;;21.50;94.40;;;;;;5015647;28;20464;-72
2022/04/12 11:55:13;;;;;;;4.73;3.90;;;21.60;94.70;;;;;;5016143;28;20458;-74
2022/04/12 11:57:40;;;;;;;3.77;3.47;;;21.70;95.20;;;;;;5024669;28;20549;-74
2022/04/12 12:00:08;;;;;;;7.40;3.67;;;21.70;95.10;;;;;;5016668;28;20489;-74
2022/04/12 12:02:37;;;;;;;8.77;3.60;;;21.80;96.10;;;;;;5023914;28;20516;-72
2022/04/12 12:05:08;;;;;;;6.27;3.40;;;22.00;96.10;;;;;;5017291;28;20485;-72
2022/04/12 12:07:36;;;;;;;3.40;3.10;;;22.10;94.80;;;;;;5019898;28;20450;-72
2022/04/12 12:10:05;;;;;;;2.93;2.20;;;22.00;93.70;;;;;;5021750;28;20466;-72
2022/04/12 12:12:33;;;;;;;7.50;2.50;;;22.30;93.10;;;;;;5023698;28;20975;-72
2022/04/12 12:15:11;;;;;;;3.23;2.70;;;22.40;94.20;;;;;;5015341;28;20464;-72
2022/04/12 12:17:40;;;;;;;5.60;2.40;;;22.60;93.70;;;;;;5018178;28;20856;-72
2022/04/12 12:20:09;;;;;;;2.10;1.90;;;22.40;91.90;;;;;;5015729;28;20482;-72
2022/04/12 12:22:37;;;;;;;2.63;2.20;;;22.30;91.90;;;;;;5019603;28;20453;-72
2022/04/12 12:25:05;;;;;;;2.27;1.97;;;22.40;91.00;;;;;;5025643;28;20493;-72
2022/04/12 12:27:34;;;;;;;2.50;2.30;;;22.60;90.80;;;;;;5019312;28;20533;-72
2022/04/12 12:30:06;;;;;;;3.43;2.20;;;22.60;90.80;;;;;;5017336;28;20473;-73
2022/04/12 12:32:34;;;;;;;3.03;2.60;;;22.40;89.00;;;;;;5035822;28;20480;-74
2022/04/12 12:35:10;;;;;;;3.33;2.17;;;22.10;90.00;;;;;;5045144;28;20480;-74
2022/04/12 12:37:38;;;;;;;2.50;2.30;;;22.10;90.00;;;;;;5039119;28;20765;-73
2022/04/12 12:40:18;;;;;;;2.43;2.20;;;22.00;89.40;;;;;;5037774;28;21002;-73
2022/04/12 12:42:46;;;;;;;4.57;2.10;;;22.00;90.10;;;;;;5036232;28;20488;-73
2022/04/12 12:45:14;;;;;;;2.73;2.50;;;22.10;89.70;;;;;;5044976;28;20805;-73